Huvudsida
METAR-TAF:

METAR-TAF

Flygplatser :

Sundsvall Timrå Airport

Sundsvall-Härnösand, Sverige

latitud: 62-32N, longitud: 017-27E, höjd: 4 m

Aktuellt väderrapport

Denna rapport gjordes för 16 minuter sedan, klockan 07:20 UTC
Vind 10 kt från nord/nordväst
Temperatur -3°C
Fuktighet 86%
Tryck 1000 hPa
Sikt 10 km eller mer

METAR: ESNN 250720Z AUTO 33010KT 9999 OVC011/// M03/M05 Q1000

Tid: 08:36 (07:36 UTC)

Väderprognos

Denna rapport gjordes för 3 timmar och 6 minuter sedan, klockan 04:30 UTC
Prognos gäller från 25 kl. 05 UTC till 25 kl. 07 UTC
Vind 8 kt från nord
Sikt 10 km eller mer
Mulet på en höjd av 1500 ft
Sannolikhet 40%
från 25 kl. 05 UTC till 25 kl. 07 UTC
Brutna moln på en höjd av 900 ft

TAF: ESNN 250430Z 2505/2507 36008KT 9999 OVC015 PROB40 2505/2507 BKN009

Aktuella väderrapporter och prognoser från 4000 flygplatser (METAR- och TAF-rapporter).

De tillgängliga stationerna syns som gula och röda prickar på kartan.

För musen över prickarna för att se namnen på stationerna.

Klicka sedan för att få väderrapporter och prognoser.

För att ändra kartan: Klicka på de gröna knapparna med ett svart kors på för att zooma in; den gröna knappen med ett streck på för att zooma ut; eller på de gröna pilarna för angränsande kartor.


METAR-TAF: